Time;durP1;ratioP1;P1;durP2;ratioP2;P2;SDS_P1;SDS_P2;PMS_P1;PMS_P2;Temp;Humidity;BMP_temperature;BMP_pressure;BME280_temperature;BME280_humidity;BME280_pressure;Samples;Min_cycle;Max_cycle;Signal;HPM_P1;HPM_P2
2021/05/27 00:01:16;;;;;;;3.45;1.30;;;12.60;94.00;;;;;;5085586;28;26939;-68
2021/05/27 00:04:00;;;;;;;1.98;1.25;;;12.50;94.00;;;;;;5085185;28;27951;-68
2021/05/27 00:06:45;;;;;;;2.40;1.30;;;12.50;94.10;;;;;;5084773;28;27414;-68
2021/05/27 00:09:29;;;;;;;4.15;1.30;;;12.50;94.00;;;;;;5085272;28;27386;-69
2021/05/27 00:12:14;;;;;;;3.30;1.02;;;12.50;94.10;;;;;;5085087;28;27399;-68
2021/05/27 00:14:58;;;;;;;2.95;1.10;;;12.50;94.10;;;;;;5085262;28;27946;-68
2021/05/27 00:17:43;;;;;;;3.08;1.30;;;12.50;94.20;;;;;;5084295;28;27419;-68
2021/05/27 00:20:27;;;;;;;2.20;1.23;;;12.50;94.20;;;;;;5081963;28;27454;-68
2021/05/27 00:23:12;;;;;;;1.40;1.02;;;12.50;94.20;;;;;;5085075;28;27470;-68
2021/05/27 00:25:56;;;;;;;2.90;1.10;;;12.50;94.10;;;;;;5084533;28;27946;-68
2021/05/27 00:28:41;;;;;;;1.13;0.90;;;12.50;94.20;;;;;;5084382;28;27391;-69
2021/05/27 00:31:25;;;;;;;1.25;0.93;;;12.50;94.30;;;;;;5085068;28;27435;-68
2021/05/27 00:34:09;;;;;;;2.65;1.13;;;12.50;94.10;;;;;;5084228;28;27687;-68
2021/05/27 00:36:54;;;;;;;1.42;0.90;;;12.50;94.20;;;;;;5081736;28;27404;-68
2021/05/27 00:39:38;;;;;;;3.60;1.30;;;12.40;94.00;;;;;;5083854;28;27580;-68
2021/05/27 00:42:23;;;;;;;1.35;1.00;;;12.50;94.00;;;;;;5084857;28;27403;-69
2021/05/27 00:45:12;;;;;;;1.27;0.90;;;12.40;94.00;;;;;;5083713;28;27375;-68
2021/05/27 00:47:58;;;;;;;2.40;1.10;;;12.40;94.20;;;;;;5084628;28;27394;-68
2021/05/27 00:50:43;;;;;;;1.20;1.02;;;12.40;94.20;;;;;;5084364;28;27395;-68
2021/05/27 00:53:28;;;;;;;2.10;0.85;;;12.40;94.40;;;;;;5080564;28;27356;-68
2021/05/27 00:56:13;;;;;;;2.92;0.85;;;12.40;94.20;;;;;;5066433;28;27332;-68
2021/05/27 00:58:58;;;;;;;1.20;0.90;;;12.40;94.10;;;;;;5084275;28;27931;-68
2021/05/27 01:01:42;;;;;;;0.80;0.80;;;12.40;94.20;;;;;;5082515;28;27467;-68
2021/05/27 01:04:27;;;;;;;2.88;1.02;;;12.40;94.30;;;;;;5080555;28;27412;-70
2021/05/27 01:07:13;;;;;;;1.50;0.93;;;12.40;94.60;;;;;;5080388;28;27430;-68
2021/05/27 01:09:58;;;;;;;3.08;0.93;;;12.30;94.40;;;;;;5080760;28;27319;-68
2021/05/27 01:12:43;;;;;;;2.30;1.05;;;12.30;94.40;;;;;;5084275;28;27466;-68
2021/05/27 01:15:31;;;;;;;2.28;1.00;;;12.30;94.40;;;;;;5084131;28;27517;-68
2021/05/27 01:18:20;;;;;;;1.35;1.00;;;12.30;94.40;;;;;;5081023;28;27321;-68
2021/05/27 01:21:05;;;;;;;2.35;1.35;;;12.30;94.40;;;;;;5079892;28;27434;-68
2021/05/27 01:23:50;;;;;;;1.83;1.50;;;12.30;94.40;;;;;;5080707;28;27416;-68
2021/05/27 01:26:36;;;;;;;1.25;1.15;;;12.30;94.40;;;;;;5066623;28;27653;-69
2021/05/27 01:29:20;;;;;;;2.45;1.30;;;12.30;94.40;;;;;;5083875;28;27493;-68
2021/05/27 01:32:05;;;;;;;1.67;0.93;;;12.30;94.50;;;;;;5079842;28;27436;-68
2021/05/27 01:34:51;;;;;;;1.65;1.20;;;12.30;94.50;;;;;;5080465;28;27482;-68
2021/05/27 01:37:39;;;;;;;1.48;1.25;;;12.30;94.50;;;;;;5079912;28;27316;-68
2021/05/27 01:40:24;;;;;;;1.67;1.25;;;12.20;94.50;;;;;;5108870;27;27315;-67
2021/05/27 01:43:09;;;;;;;1.08;0.98;;;12.30;94.70;;;;;;5079749;28;27316;-68
2021/05/27 01:45:56;;;;;;;1.25;1.15;;;12.20;94.80;;;;;;5079635;28;27410;-68
2021/05/27 01:48:42;;;;;;;1.95;1.58;;;12.20;94.60;;;;;;5079366;28;27327;-68
2021/05/27 01:51:26;;;;;;;1.98;1.20;;;12.20;94.40;;;;;;5083789;28;27363;-67
2021/05/27 01:54:11;;;;;;;1.38;1.25;;;12.20;94.60;;;;;;5081092;28;27423;-68
2021/05/27 01:56:57;;;;;;;1.00;0.90;;;12.20;94.50;;;;;;5079671;28;27413;-69
2021/05/27 01:59:42;;;;;;;2.08;1.20;;;12.20;94.50;;;;;;5079720;28;27398;-68
2021/05/27 02:02:29;;;;;;;1.23;1.00;;;12.20;94.50;;;;;;5079190;28;27478;-68
2021/05/27 02:05:14;;;;;;;1.48;1.27;;;12.20;94.70;;;;;;5082765;28;27422;-68
2021/05/27 02:08:01;;;;;;;1.10;1.00;;;12.20;94.80;;;;;;5080210;28;27450;-68
2021/05/27 02:10:56;;;;;;;2.17;1.30;;;12.20;94.90;;;;;;5079282;28;27454;-68
2021/05/27 02:13:40;;;;;;;2.05;1.05;;;12.20;95.00;;;;;;5080158;28;27392;-68
2021/05/27 02:16:25;;;;;;;3.70;1.00;;;12.10;95.00;;;;;;5080105;28;27940;-68
2021/05/27 02:19:10;;;;;;;2.17;1.38;;;12.20;95.00;;;;;;5079835;28;27397;-68
2021/05/27 02:21:58;;;;;;;1.20;1.10;;;12.20;95.00;;;;;;5082533;28;27367;-67
2021/05/27 02:25:00;;;;;;;1.17;1.08;;;12.10;95.00;;;;;;5079030;28;27440;-68
2021/05/27 02:27:46;;;;;;;1.88;1.50;;;12.10;95.00;;;;;;5082055;28;28007;-68
2021/05/27 02:30:32;;;;;;;2.80;1.17;;;12.10;94.90;;;;;;5079378;28;27428;-67
2021/05/27 02:33:23;;;;;;;1.60;0.90;;;12.10;94.90;;;;;;5065793;28;27336;-68
2021/05/27 02:36:10;;;;;;;1.33;1.23;;;12.10;94.80;;;;;;5079064;28;27577;-68
2021/05/27 02:38:56;;;;;;;1.63;1.30;;;12.10;95.10;;;;;;5079027;28;27411;-68
2021/05/27 02:41:41;;;;;;;1.17;1.08;;;12.10;95.00;;;;;;5082863;28;27472;-68
2021/05/27 02:44:26;;;;;;;1.88;1.25;;;12.10;94.70;;;;;;5079707;28;27450;-68
2021/05/27 02:47:11;;;;;;;2.20;1.30;;;12.10;94.90;;;;;;5079850;28;27448;-68
2021/05/27 02:49:56;;;;;;;1.85;1.17;;;12.10;94.70;;;;;;5081397;28;27450;-68
2021/05/27 02:52:43;;;;;;;1.30;1.20;;;12.10;95.00;;;;;;5078880;28;27416;-68
2021/05/27 02:55:28;;;;;;;1.38;1.27;;;12.10;95.00;;;;;;5078876;28;27374;-68
2021/05/27 02:58:14;;;;;;;1.23;1.13;;;12.00;94.70;;;;;;5078986;28;27374;-69
2021/05/27 03:01:00;;;;;;;0.90;0.90;;;12.10;95.00;;;;;;5079665;28;27392;-68
2021/05/27 03:03:46;;;;;;;1.42;1.25;;;12.00;94.90;;;;;;5082909;28;27425;-68
2021/05/27 03:06:30;;;;;;;1.33;1.10;;;12.00;95.10;;;;;;5085624;28;27395;-68
2021/05/27 03:09:15;;;;;;;1.88;1.27;;;12.00;94.90;;;;;;5083015;28;27325;-68
2021/05/27 03:12:00;;;;;;;1.13;0.95;;;12.00;94.90;;;;;;5082846;28;27380;-68
2021/05/27 03:14:45;;;;;;;1.63;1.50;;;12.00;94.80;;;;;;5082977;28;27378;-68
2021/05/27 03:17:35;;;;;;;1.40;1.30;;;12.00;94.90;;;;;;5082185;28;27435;-68
2021/05/27 03:20:21;;;;;;;2.05;1.27;;;12.00;94.80;;;;;;5086223;28;27455;-68
2021/05/27 03:23:07;;;;;;;1.63;1.27;;;12.00;95.00;;;;;;5085811;28;27398;-68
2021/05/27 03:25:52;;;;;;;1.25;1.10;;;12.00;95.00;;;;;;5081645;28;27529;-67
2021/05/27 03:28:37;;;;;;;2.63;1.27;;;12.00;95.00;;;;;;5081794;28;27482;-67
2021/05/27 03:31:26;;;;;;;1.48;1.30;;;12.00;95.00;;;;;;5081704;28;27358;-68
2021/05/27 03:34:12;;;;;;;1.83;1.20;;;11.90;95.00;;;;;;5082701;28;27371;-70
2021/05/27 03:36:57;;;;;;;4.35;1.27;;;12.00;95.10;;;;;;5082382;28;27387;-68
2021/05/27 03:40:11;;;;;;;2.70;1.50;;;11.90;95.10;;;;;;5085912;28;27332;-68
2021/05/27 03:42:53;;;;;;;2.75;1.02;;;11.90;95.00;;;;;;5082608;28;27690;-68
2021/05/27 03:45:37;;;;;;;2.13;1.25;;;11.90;95.30;;;;;;5081393;28;28033;-68
2021/05/27 03:48:41;;;;;;;1.33;1.23;;;11.90;95.20;;;;;;5081253;28;27470;-68
2021/05/27 03:51:26;;;;;;;1.65;1.40;;;11.90;95.30;;;;;;5085635;28;27453;-68
2021/05/27 03:54:11;;;;;;;2.45;2.20;;;11.90;95.00;;;;;;5081430;28;27415;-70
2021/05/27 03:56:55;;;;;;;1.65;1.27;;;11.90;95.20;;;;;;5082221;28;27411;-68
2021/05/27 04:02:49;;;;;;;1.95;1.50;;;11.90;95.50;;;;;;5081517;28;27448;-68
2021/05/27 04:08:59;;;;;;;1.98;1.60;;;11.90;95.50;;;;;;5084585;28;28032;-68
2021/05/27 04:11:43;;;;;;;1.50;1.40;;;11.90;95.50;;;;;;5085102;28;27458;-68
2021/05/27 04:14:27;;;;;;;2.00;1.65;;;11.90;95.50;;;;;;5085124;28;27459;-67
2021/05/27 04:17:12;;;;;;;3.17;1.65;;;12.00;95.70;;;;;;5081710;28;27410;-68
2021/05/27 04:19:56;;;;;;;2.20;1.75;;;11.90;95.50;;;;;;5085129;28;27923;-68
2021/05/27 04:22:42;;;;;;;1.85;1.75;;;11.90;95.50;;;;;;5066787;28;27474;-68
2021/05/27 04:25:27;;;;;;;2.65;1.83;;;11.90;95.50;;;;;;5085122;28;27478;-68
2021/05/27 04:28:11;;;;;;;4.70;1.80;;;11.90;95.50;;;;;;5084064;28;27471;-68
2021/05/27 04:31:16;;;;;;;2.42;1.90;;;11.90;95.70;;;;;;5084402;28;27964;-68
2021/05/27 04:34:01;;;;;;;6.25;2.25;;;11.90;95.50;;;;;;5084193;28;27534;-68
2021/05/27 04:36:46;;;;;;;4.72;2.42;;;11.90;95.30;;;;;;5083091;28;27604;-68
2021/05/27 04:39:30;;;;;;;3.38;2.17;;;12.00;95.40;;;;;;5084894;28;27447;-68
2021/05/27 04:42:15;;;;;;;4.00;1.75;;;12.00;95.30;;;;;;5081335;28;27833;-68
2021/05/27 04:44:59;;;;;;;2.35;2.05;;;12.00;95.10;;;;;;5084705;28;27452;-68
2021/05/27 04:47:50;;;;;;;3.80;2.17;;;12.00;95.60;;;;;;5084813;28;27428;-69
2021/05/27 04:50:34;;;;;;;5.25;1.88;;;12.00;95.60;;;;;;5084282;28;27379;-69
2021/05/27 04:53:19;;;;;;;6.57;2.28;;;12.00;95.70;;;;;;5083913;28;27477;-69
2021/05/27 04:56:04;;;;;;;13.40;8.48;;;12.00;95.70;;;;;;5084278;28;27408;-68
2021/05/27 04:58:49;;;;;;;17.90;9.65;;;12.10;94.00;;;;;;5084321;28;27340;-68
2021/05/27 05:01:33;;;;;;;7.00;4.90;;;12.00;92.20;;;;;;5084750;28;27400;-68
2021/05/27 05:04:18;;;;;;;3.42;2.40;;;12.10;92.00;;;;;;5083919;28;27458;-68
2021/05/27 05:07:02;;;;;;;4.85;3.05;;;12.10;91.40;;;;;;5083363;28;27491;-68
2021/05/27 05:09:47;;;;;;;2.10;1.52;;;12.10;91.90;;;;;;5065992;28;27014;-68
2021/05/27 05:12:44;;;;;;;1.80;1.58;;;12.10;91.50;;;;;;5084466;28;27458;-68
2021/05/27 05:15:31;;;;;;;4.38;1.77;;;12.20;92.00;;;;;;5080823;28;27329;-68
2021/05/27 05:18:15;;;;;;;1.88;1.45;;;12.20;91.80;;;;;;5083222;28;27336;-68
2021/05/27 05:21:00;;;;;;;1.90;1.58;;;12.20;91.60;;;;;;5084234;28;27391;-68
2021/05/27 05:23:44;;;;;;;2.30;1.88;;;12.20;91.70;;;;;;5083560;28;27386;-68
2021/05/27 05:26:29;;;;;;;2.25;1.60;;;12.30;91.60;;;;;;5083565;28;28010;-68
2021/05/27 05:29:13;;;;;;;2.05;1.50;;;12.30;91.70;;;;;;5084030;28;27549;-69
2021/05/27 05:31:57;;;;;;;3.65;1.50;;;12.40;91.70;;;;;;5083781;28;27429;-69
2021/05/27 05:34:46;;;;;;;4.15;2.10;;;12.40;91.80;;;;;;5084111;28;27407;-70
2021/05/27 05:37:31;;;;;;;4.88;1.73;;;12.50;92.00;;;;;;5083964;28;27462;-71
2021/05/27 05:40:20;;;;;;;3.65;1.88;;;12.50;92.00;;;;;;5065637;28;27373;-70
2021/05/27 05:43:05;;;;;;;3.35;2.10;;;12.60;92.60;;;;;;5083776;28;27450;-68
2021/05/27 05:45:49;;;;;;;2.60;1.80;;;12.70;93.00;;;;;;5083025;28;27468;-68
2021/05/27 05:48:35;;;;;;;4.40;2.25;;;12.80;93.30;;;;;;5079426;28;27396;-68
2021/05/27 05:51:19;;;;;;;4.30;2.15;;;12.80;93.30;;;;;;5083463;28;27481;-68
2021/05/27 05:54:04;;;;;;;7.18;3.00;;;12.90;93.50;;;;;;5083492;28;27510;-68
2021/05/27 05:56:48;;;;;;;7.05;3.30;;;13.00;93.60;;;;;;5083790;28;27304;-69
2021/05/27 05:59:33;;;;;;;2.88;1.83;;;13.10;93.60;;;;;;5081573;28;27816;-69
2021/05/27 06:02:17;;;;;;;2.40;1.73;;;13.40;93.60;;;;;;5083390;28;27419;-69
2021/05/27 06:05:02;;;;;;;4.00;1.70;;;13.50;93.40;;;;;;5079611;28;27387;-69
2021/05/27 06:08:09;;;;;;;2.55;1.90;;;13.60;93.40;;;;;;5079837;28;27427;-69
2021/05/27 06:10:54;;;;;;;2.35;1.50;;;13.60;93.40;;;;;;5083288;28;27410;-69
2021/05/27 06:13:38;;;;;;;1.85;1.75;;;13.70;93.50;;;;;;5083489;28;27397;-69
2021/05/27 06:16:23;;;;;;;1.70;1.42;;;13.70;93.60;;;;;;5083962;28;27406;-69
2021/05/27 06:19:07;;;;;;;2.00;1.50;;;13.70;93.30;;;;;;5084234;28;27430;-69
2021/05/27 06:22:00;;;;;;;2.63;1.60;;;13.90;93.40;;;;;;5081152;28;27335;-69
2021/05/27 06:25:08;;;;;;;2.72;1.85;;;14.00;93.80;;;;;;5083547;28;27596;-70
2021/05/27 06:27:53;;;;;;;1.90;1.33;;;14.20;94.30;;;;;;5083418;28;27391;-70
2021/05/27 06:30:37;;;;;;;1.73;1.48;;;14.40;94.00;;;;;;5084256;28;27313;-72
2021/05/27 06:33:22;;;;;;;1.60;1.50;;;14.60;93.80;;;;;;5084221;28;27843;-70
2021/05/27 06:36:07;;;;;;;2.65;1.55;;;14.80;93.50;;;;;;5084474;28;27451;-70
2021/05/27 06:38:52;;;;;;;2.58;1.40;;;15.00;93.60;;;;;;5087600;28;27415;-70
2021/05/27 06:41:36;;;;;;;1.50;1.40;;;15.20;93.60;;;;;;5087801;28;27383;-70
2021/05/27 06:44:21;;;;;;;3.80;1.63;;;15.40;93.30;;;;;;5087480;28;27415;-70
2021/05/27 06:47:05;;;;;;;1.60;1.50;;;15.60;93.20;;;;;;5087739;28;27321;-70
2021/05/27 06:49:50;;;;;;;1.98;1.33;;;15.80;93.60;;;;;;5083603;28;27352;-70
2021/05/27 06:52:35;;;;;;;3.47;1.55;;;16.00;93.50;;;;;;5087124;28;27620;-70
2021/05/27 06:55:19;;;;;;;3.35;1.65;;;16.20;92.70;;;;;;5087576;28;27894;-70
2021/05/27 06:58:04;;;;;;;2.88;1.42;;;16.40;92.90;;;;;;5087215;28;27427;-70
2021/05/27 07:00:48;;;;;;;1.23;1.08;;;16.60;92.60;;;;;;5087249;28;27428;-70
2021/05/27 07:03:32;;;;;;;1.27;1.10;;;16.70;92.00;;;;;;5087461;28;27497;-72
2021/05/27 07:06:17;;;;;;;1.95;1.35;;;17.00;92.30;;;;;;5087375;28;27469;-70
2021/05/27 07:09:02;;;;;;;4.00;1.33;;;17.20;92.80;;;;;;5087327;28;27450;-70
2021/05/27 07:11:47;;;;;;;2.20;1.20;;;17.30;92.40;;;;;;5112227;27;27462;-70
2021/05/27 07:14:31;;;;;;;1.20;1.10;;;17.20;91.80;;;;;;5087268;28;27446;-70
2021/05/27 07:17:16;;;;;;;1.60;1.02;;;17.10;91.10;;;;;;5087192;28;27836;-70
2021/05/27 07:20:01;;;;;;;1.48;1.10;;;17.00;91.10;;;;;;5086739;28;28057;-70
2021/05/27 07:22:45;;;;;;;2.60;1.30;;;17.00;91.10;;;;;;5087129;28;27419;-70
2021/05/27 07:25:30;;;;;;;1.10;1.00;;;17.10;91.40;;;;;;5087152;28;27509;-70
2021/05/27 07:28:15;;;;;;;2.33;1.00;;;17.10;91.30;;;;;;5087056;28;27422;-70
2021/05/27 07:31:00;;;;;;;1.98;1.20;;;17.20;91.70;;;;;;5086469;28;27475;-71
2021/05/27 07:33:45;;;;;;;3.67;1.20;;;17.50;91.90;;;;;;5086823;28;27462;-70
2021/05/27 07:36:29;;;;;;;2.25;1.30;;;17.70;91.00;;;;;;5086928;28;27455;-70
2021/05/27 07:39:14;;;;;;;2.17;1.38;;;17.90;90.90;;;;;;5082587;28;27868;-71
2021/05/27 07:41:58;;;;;;;1.33;0.88;;;18.10;91.30;;;;;;5086844;28;27394;-71
2021/05/27 07:44:43;;;;;;;1.55;1.00;;;18.40;90.80;;;;;;5086850;28;27372;-71
2021/05/27 07:47:29;;;;;;;1.60;1.08;;;18.70;90.70;;;;;;5085881;28;27386;-72
2021/05/27 07:50:20;;;;;;;1.33;1.00;;;19.00;90.50;;;;;;5086519;28;27343;-71
2021/05/27 07:53:07;;;;;;;2.45;1.00;;;19.10;90.00;;;;;;5086434;28;27341;-71
2021/05/27 07:55:51;;;;;;;2.25;0.90;;;19.20;88.80;;;;;;5086672;28;27333;-71
2021/05/27 07:58:36;;;;;;;1.30;1.00;;;19.20;86.70;;;;;;5086388;28;27387;-70
2021/05/27 08:01:20;;;;;;;1.77;0.88;;;19.10;85.00;;;;;;5086545;28;27369;-71
2021/05/27 08:04:05;;;;;;;1.85;0.82;;;19.00;84.80;;;;;;5086479;28;27381;-70
2021/05/27 08:06:49;;;;;;;4.53;0.90;;;18.80;84.40;;;;;;5086267;28;27349;-70
2021/05/27 08:09:33;;;;;;;2.15;0.95;;;18.50;84.00;;;;;;5086340;28;27450;-70
2021/05/27 08:12:18;;;;;;;2.22;0.98;;;18.30;85.40;;;;;;5086119;28;27483;-70
2021/05/27 08:15:05;;;;;;;1.52;1.13;;;18.10;86.30;;;;;;5085944;28;27434;-70
2021/05/27 08:17:49;;;;;;;5.38;1.00;;;17.90;85.30;;;;;;5086090;28;27371;-72
2021/05/27 08:20:34;;;;;;;1.42;1.17;;;17.90;88.00;;;;;;5086468;28;27445;-71
2021/05/27 08:23:18;;;;;;;2.92;0.90;;;18.10;86.90;;;;;;5085977;28;27417;-71
2021/05/27 08:26:03;;;;;;;1.23;0.80;;;18.50;86.40;;;;;;5085678;28;27413;-71
2021/05/27 08:28:47;;;;;;;2.78;1.00;;;18.90;85.50;;;;;;5086292;28;27402;-71
2021/05/27 08:31:32;;;;;;;1.63;0.80;;;19.10;84.70;;;;;;5085498;28;27411;-72
2021/05/27 08:34:19;;;;;;;0.88;0.80;;;19.40;83.80;;;;;;5086004;28;27423;-72
2021/05/27 08:37:04;;;;;;;0.70;0.70;;;19.50;81.60;;;;;;5085982;28;27450;-72
2021/05/27 08:39:48;;;;;;;2.28;0.90;;;19.50;83.90;;;;;;5086021;28;27466;-72
2021/05/27 08:42:33;;;;;;;5.13;1.10;;;19.80;84.40;;;;;;5082536;28;27011;-72
2021/05/27 08:45:18;;;;;;;1.60;0.82;;;20.20;82.30;;;;;;5085840;28;27949;-72
2021/05/27 08:48:03;;;;;;;3.03;0.80;;;20.60;81.30;;;;;;5085785;28;27411;-71
2021/05/27 08:50:48;;;;;;;2.00;0.90;;;20.60;79.30;;;;;;5085595;28;26923;-71
2021/05/27 08:53:32;;;;;;;4.07;1.02;;;20.40;77.80;;;;;;5084758;28;27472;-71
2021/05/27 08:56:17;;;;;;;1.50;0.90;;;20.10;75.70;;;;;;5085396;28;28065;-72
2021/05/27 08:59:01;;;;;;;1.50;0.95;;;20.10;79.50;;;;;;5084499;28;27400;-72
2021/05/27 09:02:18;;;;;;;2.40;0.90;;;20.30;79.50;;;;;;5085675;28;27416;-72
2021/05/27 09:05:14;;;;;;;1.10;0.80;;;20.60;78.00;;;;;;5083502;28;27454;-71
2021/05/27 09:08:00;;;;;;;3.70;1.23;;;20.50;77.40;;;;;;5085531;28;27476;-72
2021/05/27 09:10:48;;;;;;;2.28;0.80;;;20.20;78.30;;;;;;5084499;28;27328;-72
2021/05/27 09:13:33;;;;;;;1.30;0.93;;;20.10;79.80;;;;;;5082205;28;27380;-72
2021/05/27 09:16:18;;;;;;;4.90;1.35;;;20.30;79.00;;;;;;5085024;28;27375;-71
2021/05/27 09:19:17;;;;;;;8.93;1.13;;;20.50;62.00;;;;;;5085239;28;27388;-70
2021/05/27 09:22:02;;;;;;;63.58;5.43;;;20.70;58.00;;;;;;5085030;28;27452;-71
2021/05/27 09:24:47;;;;;;;7.22;1.17;;;21.00;58.00;;;;;;5084256;28;27513;-71
2021/05/27 09:27:45;;;;;;;7.78;1.33;;;21.20;53.10;;;;;;5084462;28;27439;-72
2021/05/27 09:30:30;;;;;;;2.20;0.70;;;21.00;53.30;;;;;;5084647;28;28049;-72
2021/05/27 09:33:16;;;;;;;1.42;0.77;;;20.70;53.80;;;;;;5081567;28;27369;-73
2021/05/27 09:36:04;;;;;;;1.42;1.00;;;20.80;60.30;;;;;;5084347;28;27413;-73
2021/05/27 09:39:02;;;;;;;1.90;0.80;;;21.10;63.00;;;;;;5084600;28;27394;-73
2021/05/27 09:41:46;;;;;;;5.65;1.48;;;21.40;63.90;;;;;;5081412;28;27456;-73
2021/05/27 09:44:31;;;;;;;1.75;1.00;;;21.70;67.50;;;;;;5098425;27;27430;-73
2021/05/27 09:47:29;;;;;;;4.30;1.00;;;22.10;69.60;;;;;;5084719;28;27473;-73
2021/05/27 09:50:13;;;;;;;2.05;0.80;;;22.50;68.80;;;;;;5084040;28;27423;-72
2021/05/27 09:53:12;;;;;;;2.47;0.90;;;22.80;68.70;;;;;;5084818;28;27394;-71
2021/05/27 09:55:57;;;;;;;2.42;0.80;;;23.20;68.80;;;;;;5084610;28;27477;-71
2021/05/27 09:58:52;;;;;;;1.65;0.70;;;23.40;66.90;;;;;;5084017;28;27402;-71
2021/05/27 10:01:40;;;;;;;2.13;0.77;;;23.60;67.10;;;;;;5081182;28;27370;-71
2021/05/27 10:04:25;;;;;;;1.80;0.85;;;23.50;68.40;;;;;;5084076;28;27407;-71
2021/05/27 10:07:41;;;;;;;1.25;0.65;;;23.50;67.10;;;;;;5084623;28;27324;-71
2021/05/27 10:10:26;;;;;;;2.00;1.23;;;23.70;68.50;;;;;;5084188;28;27457;-71
2021/05/27 10:13:12;;;;;;;1.77;0.90;;;23.80;67.10;;;;;;5081280;28;27402;-71
2021/05/27 10:15:57;;;;;;;1.52;0.60;;;23.80;66.60;;;;;;5084443;28;27466;-71
2021/05/27 10:18:41;;;;;;;2.95;1.02;;;23.70;66.00;;;;;;5084473;28;27466;-71
2021/05/27 10:21:26;;;;;;;1.98;0.90;;;23.50;64.40;;;;;;5084619;28;27397;-73
2021/05/27 10:24:11;;;;;;;4.47;1.17;;;23.50;67.80;;;;;;5080426;28;27401;-73
2021/05/27 10:26:55;;;;;;;1.65;0.70;;;23.40;67.50;;;;;;5097621;27;27450;-72
2021/05/27 10:29:41;;;;;;;2.85;0.90;;;23.00;67.00;;;;;;5094732;27;27457;-73
2021/05/27 10:32:26;;;;;;;3.58;0.80;;;22.60;67.00;;;;;;5083647;28;27181;-72
2021/05/27 10:35:11;;;;;;;2.35;0.88;;;22.20;65.80;;;;;;5080810;28;27447;-75
2021/05/27 10:37:55;;;;;;;1.77;0.70;;;21.80;68.50;;;;;;5083998;28;27481;-73
2021/05/27 10:40:41;;;;;;;1.15;0.80;;;21.50;70.50;;;;;;5084043;28;27466;-72
2021/05/27 10:43:25;;;;;;;1.90;0.95;;;21.20;73.00;;;;;;5084255;28;27466;-72
2021/05/27 10:46:11;;;;;;;0.90;0.80;;;21.00;72.80;;;;;;5083142;28;27420;-72
2021/05/27 10:48:55;;;;;;;1.60;0.80;;;20.80;72.00;;;;;;5084026;28;27400;-72
2021/05/27 10:51:49;;;;;;;1.63;0.73;;;20.70;71.60;;;;;;5080529;28;27486;-72
2021/05/27 10:54:34;;;;;;;2.28;0.80;;;20.70;72.20;;;;;;5080084;28;27310;-73
2021/05/27 10:57:48;;;;;;;1.70;0.88;;;21.00;73.30;;;;;;5083976;28;27359;-73
2021/05/27 11:00:33;;;;;;;2.08;0.85;;;21.30;74.90;;;;;;5081763;28;27381;-73
2021/05/27 11:03:39;;;;;;;1.33;0.80;;;21.40;72.30;;;;;;5079905;28;27390;-73
2021/05/27 11:06:31;;;;;;;2.40;0.80;;;21.50;73.80;;;;;;5083608;28;27340;-73
2021/05/27 11:09:16;;;;;;;1.48;0.82;;;21.60;73.50;;;;;;5083540;28;27379;-72
2021/05/27 11:12:17;;;;;;;1.38;0.80;;;21.70;72.70;;;;;;5084170;28;27937;-73
2021/05/27 11:15:06;;;;;;;0.80;0.63;;;21.70;72.40;;;;;;5079516;28;27453;-72
2021/05/27 11:18:09;;;;;;;2.90;0.90;;;21.60;73.20;;;;;;5083803;28;27356;-72
2021/05/27 11:20:57;;;;;;;0.70;0.70;;;21.40;73.00;;;;;;5083596;28;27320;-72
2021/05/27 11:27:28;;;;;;;2.05;0.70;;;21.10;72.90;;;;;;5085795;28;27422;-72
2021/05/27 11:30:40;;;;;;;3.33;0.60;;;20.80;70.70;;;;;;5086857;28;27478;-72
2021/05/27 11:33:31;;;;;;;0.57;0.57;;;20.70;70.20;;;;;;5087083;28;27395;-72
2021/05/27 11:36:23;;;;;;;1.23;0.80;;;20.60;71.00;;;;;;5082711;28;27498;-72
2021/05/27 11:39:08;;;;;;;1.73;0.70;;;20.50;71.80;;;;;;5086222;28;27419;-75
2021/05/27 11:41:52;;;;;;;1.35;0.85;;;20.60;74.00;;;;;;5086255;28;27329;-71
2021/05/27 11:44:37;;;;;;;2.53;0.90;;;20.60;73.30;;;;;;5086886;28;27331;-72
2021/05/27 11:47:21;;;;;;;1.38;0.90;;;20.70;73.40;;;;;;5086778;28;27394;-72
2021/05/27 11:50:07;;;;;;;1.25;0.80;;;20.80;73.30;;;;;;5086620;28;27434;-72
2021/05/27 11:52:57;;;;;;;1.70;0.70;;;20.90;72.00;;;;;;5086768;28;26906;-72
2021/05/27 11:55:41;;;;;;;1.63;0.77;;;20.90;71.40;;;;;;5086380;28;27419;-72
2021/05/27 11:58:33;;;;;;;2.97;1.45;;;21.00;71.60;;;;;;5086680;28;27412;-72
2021/05/27 12:01:19;;;;;;;1.35;0.77;;;21.10;69.70;;;;;;5086608;28;27378;-72
2021/05/27 12:04:23;;;;;;;0.80;0.63;;;21.20;70.70;;;;;;5086589;28;27392;-72
2021/05/27 12:07:09;;;;;;;1.50;0.93;;;21.20;71.90;;;;;;5086565;28;27314;-72
2021/05/27 12:09:54;;;;;;;1.50;0.82;;;21.30;72.80;;;;;;5082821;28;27821;-73
2021/05/27 12:12:38;;;;;;;1.73;0.88;;;21.30;71.40;;;;;;5099855;27;27391;-73
2021/05/27 12:15:23;;;;;;;3.17;1.15;;;21.30;70.20;;;;;;5099777;27;27389;-72
2021/05/27 12:18:11;;;;;;;2.28;0.80;;;21.40;70.50;;;;;;5086377;28;27371;-76
2021/05/27 12:20:56;;;;;;;5.50;1.20;;;21.50;72.40;;;;;;5086232;28;27447;-73
2021/05/27 12:23:41;;;;;;;11.68;1.10;;;21.50;62.10;;;;;;5084884;28;27517;-73
2021/05/27 12:26:25;;;;;;;1.88;1.08;;;21.60;57.10;;;;;;5086047;28;27460;-72
2021/05/27 12:29:11;;;;;;;2.35;0.95;;;21.60;54.30;;;;;;5082951;28;27450;-72
2021/05/27 12:31:56;;;;;;;2.83;1.02;;;21.60;56.00;;;;;;5085802;28;27965;-72
2021/05/27 12:34:41;;;;;;;1.70;0.90;;;21.60;55.90;;;;;;5085642;28;27474;-72
2021/05/27 12:37:46;;;;;;;3.47;0.90;;;21.60;55.50;;;;;;5085773;28;27459;-72
2021/05/27 12:40:40;;;;;;;1.80;1.02;;;21.60;49.30;;;;;;5085971;28;27454;-73
2021/05/27 12:43:26;;;;;;;1.55;0.93;;;21.40;50.60;;;;;;5084950;28;27340;-73
2021/05/27 12:46:11;;;;;;;6.45;2.33;;;21.30;54.00;;;;;;5085674;28;27376;-73
2021/05/27 12:48:57;;;;;;;9.90;6.93;;;21.20;57.50;;;;;;5085009;28;27446;-73
2021/05/27 12:51:42;;;;;;;15.93;12.20;;;21.20;61.10;;;;;;5085450;28;27401;-72
2021/05/27 12:54:27;;;;;;;27.45;15.70;;;21.20;63.20;;;;;;5085686;28;27423;-73
2021/05/27 12:57:12;;;;;;;16.75;12.07;;;21.30;66.30;;;;;;5081641;28;27461;-72
2021/05/27 12:59:57;;;;;;;8.35;3.00;;;21.30;67.30;;;;;;5085717;28;27454;-72
2021/05/27 13:02:42;;;;;;;8.45;2.58;;;21.30;61.80;;;;;;5085674;28;26846;-73
2021/05/27 13:05:27;;;;;;;9.27;2.38;;;21.10;58.50;;;;;;5085587;28;27464;-72
2021/05/27 13:08:12;;;;;;;9.70;3.08;;;21.10;60.90;;;;;;5085513;28;27561;-73
2021/05/27 13:10:56;;;;;;;10.43;3.28;;;21.00;65.70;;;;;;5085103;28;27443;-74
2021/05/27 13:13:41;;;;;;;9.98;2.10;;;21.00;70.10;;;;;;5085475;28;27505;-76
2021/05/27 13:16:48;;;;;;;6.75;2.58;;;21.10;72.00;;;;;;5081355;28;27482;-76
2021/05/27 13:19:33;;;;;;;4.30;1.23;;;21.20;73.10;;;;;;5084946;28;27475;-75
2021/05/27 13:22:23;;;;;;;7.25;1.35;;;21.20;57.60;;;;;;5085046;28;27462;-79
2021/05/27 13:25:10;;;;;;;4.25;1.67;;;21.20;63.10;;;;;;5081011;28;27378;-75
2021/05/27 13:27:57;;;;;;;10.13;1.75;;;21.30;67.50;;;;;;5084085;28;27431;-76
2021/05/27 13:30:43;;;;;;;4.05;1.20;;;21.30;65.00;;;;;;5084222;28;27607;-75
2021/05/27 13:33:28;;;;;;;2.17;0.90;;;21.40;56.00;;;;;;5085191;28;27455;-73
2021/05/27 13:36:22;;;;;;;2.55;0.80;;;21.40;54.30;;;;;;5084117;28;27443;-73
2021/05/27 13:39:17;;;;;;;1.75;0.90;;;21.40;57.50;;;;;;5085016;28;27416;-73
2021/05/27 13:42:02;;;;;;;2.88;0.60;;;21.50;61.40;;;;;;5080946;28;27412;-72
2021/05/27 13:44:46;;;;;;;1.55;0.80;;;21.60;64.80;;;;;;5084213;28;27431;-72
2021/05/27 13:47:31;;;;;;;1.27;0.88;;;21.70;66.40;;;;;;5084952;28;27434;-72
2021/05/27 13:50:16;;;;;;;1.77;0.70;;;21.80;67.90;;;;;;5084851;28;27885;-72
2021/05/27 13:53:05;;;;;;;2.13;1.63;;;21.90;67.70;;;;;;5084595;28;27468;-72
2021/05/27 13:55:52;;;;;;;2.00;0.90;;;22.00;67.60;;;;;;5085106;28;27391;-72
2021/05/27 13:58:36;;;;;;;1.83;0.73;;;22.10;68.00;;;;;;5084688;28;27021;-72
2021/05/27 14:01:21;;;;;;;2.47;1.00;;;22.10;68.00;;;;;;5084756;28;27387;-72
2021/05/27 14:04:07;;;;;;;2.30;0.70;;;22.10;67.70;;;;;;5083941;28;27380;-72
2021/05/27 14:06:52;;;;;;;1.90;0.80;;;22.20;66.60;;;;;;5084669;28;27390;-72
2021/05/27 14:09:36;;;;;;;1.65;0.82;;;22.20;68.20;;;;;;5084565;28;27380;-72
2021/05/27 14:12:20;;;;;;;1.98;0.77;;;22.20;69.00;;;;;;5083916;28;27853;-71
2021/05/27 14:15:05;;;;;;;0.77;0.70;;;22.20;69.20;;;;;;5083812;28;27384;-72
2021/05/27 14:17:50;;;;;;;1.30;0.80;;;22.30;68.40;;;;;;5084520;28;27406;-72
2021/05/27 14:20:35;;;;;;;0.93;0.70;;;22.20;68.50;;;;;;5083486;28;27309;-72
2021/05/27 14:23:19;;;;;;;0.50;0.50;;;22.30;69.00;;;;;;5084444;28;27856;-72
2021/05/27 14:26:04;;;;;;;4.28;1.08;;;22.40;67.90;;;;;;5083938;28;27408;-72
2021/05/27 14:28:49;;;;;;;1.02;0.82;;;22.40;67.80;;;;;;5066148;28;27397;-72
2021/05/27 14:31:33;;;;;;;1.48;0.73;;;22.40;68.30;;;;;;5083228;28;27502;-72
2021/05/27 14:34:17;;;;;;;1.45;0.77;;;22.40;67.30;;;;;;5080385;28;27933;-73
2021/05/27 14:37:03;;;;;;;0.77;0.55;;;22.30;65.90;;;;;;5084240;28;27431;-72